Time;durP1;ratioP1;P1;durP2;ratioP2;P2;SDS_P1;SDS_P2;PMS_P1;PMS_P2;Temp;Humidity;BMP_temperature;BMP_pressure;BME280_temperature;BME280_humidity;BME280_pressure;Samples;Min_cycle;Max_cycle;Signal;HPM_P1;HPM_P2
2022/09/10 00:00:40;;;;;;;3.37;2.85;;;;;;;15.46;99.39;96365.52;1705988;83;21019;-89
2022/09/10 00:03:08;;;;;;;3.58;3.22;;;;;;;15.45;99.48;96363.89;1689944;85;21037;-88
2022/09/10 00:05:45;;;;;;;4.60;3.42;;;;;;;15.43;99.59;96360.69;1717882;83;20988;-89
2022/09/10 00:08:11;;;;;;;4.92;3.60;;;;;;;15.42;99.59;96361.70;1708359;83;21126;-89
2022/09/10 00:10:42;;;;;;;4.75;3.25;;;;;;;15.39;99.64;96360.31;1693648;83;21065;-88
2022/09/10 00:13:08;;;;;;;3.60;3.22;;;;;;;15.37;99.68;96355.80;1691694;83;21352;-88
2022/09/10 00:15:40;;;;;;;3.80;3.33;;;;;;;15.36;99.73;96359.94;1691161;83;21027;-89
2022/09/10 00:18:07;;;;;;;5.25;3.30;;;;;;;15.35;99.86;96360.45;1704624;83;21359;-88
2022/09/10 00:20:36;;;;;;;5.35;3.37;;;;;;;15.34;99.95;96358.84;1697152;83;20926;-88
2022/09/10 00:23:01;;;;;;;3.85;3.33;;;;;;;15.35;100.00;96369.61;1666217;84;20964;-89
2022/09/10 00:25:31;;;;;;;4.05;3.47;;;;;;;15.36;99.98;96373.03;1694801;83;21316;-89
2022/09/10 00:27:59;;;;;;;4.08;3.15;;;;;;;15.35;99.96;96373.54;1692587;83;21001;-89
2022/09/10 00:30:26;;;;;;;5.30;3.62;;;;;;;15.36;100.00;96372.52;1691190;83;21357;-88
2022/09/10 00:32:53;;;;;;;6.87;3.55;;;;;;;15.36;100.00;96380.37;1717199;83;21012;-88
2022/09/10 00:35:19;;;;;;;4.45;3.92;;;;;;;15.35;100.00;96380.09;1709208;83;20993;-89
2022/09/10 00:37:45;;;;;;;5.85;4.67;;;;;;;15.34;100.00;96381.10;1691025;83;20992;-89
2022/09/10 00:40:13;;;;;;;6.25;5.50;;;;;;;15.35;100.00;96380.59;1690832;83;21068;-89
2022/09/10 00:42:42;;;;;;;7.05;6.08;;;;;;;15.35;100.00;96380.09;1692198;83;20940;-89
2022/09/10 00:45:19;;;;;;;6.85;6.15;;;;;;;15.36;100.00;96384.30;1719641;83;21375;-89
2022/09/10 00:47:46;;;;;;;8.90;6.20;;;;;;;15.38;100.00;96391.95;1693275;82;21043;-88
2022/09/10 00:50:23;;;;;;;8.85;6.47;;;;;;;15.38;100.00;96387.52;1705462;83;20952;-86
2022/09/10 00:52:51;;;;;;;7.72;6.62;;;;;;;15.40;100.00;96381.55;1722240;83;21374;-88
2022/09/10 00:55:17;;;;;;;8.28;7.45;;;;;;;15.42;100.00;96371.67;1691896;83;20965;-88
2022/09/10 00:57:45;;;;;;;8.70;7.70;;;;;;;15.44;100.00;96371.45;1691448;83;20948;-87
2022/09/10 01:00:11;;;;;;;8.93;7.97;;;;;;;15.43;100.00;96369.34;1715610;83;20959;-88
2022/09/10 01:02:37;;;;;;;8.65;7.85;;;;;;;15.44;100.00;96365.70;1683912;85;20993;-87
2022/09/10 01:05:04;;;;;;;9.10;8.15;;;;;;;15.45;100.00;96352.91;1711716;83;20973;-88
2022/09/10 01:07:29;;;;;;;10.68;9.58;;;;;;;15.45;100.00;96355.52;1712929;83;20944;-88
2022/09/10 01:10:01;;;;;;;9.60;8.55;;;;;;;15.46;100.00;96362.91;1707751;83;21395;-87
2022/09/10 01:13:04;;;;;;;10.20;9.08;;;;;;;15.45;100.00;96352.91;1691019;83;21461;-88
2022/09/10 01:16:07;;;;;;;9.43;8.53;;;;;;;15.46;100.00;96357.16;1709232;83;20937;-87
2022/09/10 01:18:59;;;;;;;9.00;8.20;;;;;;;15.46;100.00;96355.85;1706378;83;20973;-87
2022/09/10 01:21:50;;;;;;;9.58;8.60;;;;;;;15.44;100.00;96350.00;1695258;83;20981;-88
2022/09/10 01:24:41;;;;;;;9.23;7.37;;;;;;;15.41;100.00;96347.81;1721162;83;21040;-88
2022/09/10 01:27:46;;;;;;;10.15;7.28;;;;;;;15.41;100.00;96342.57;1716645;83;20964;-88
2022/09/10 01:30:21;;;;;;;9.38;7.65;;;;;;;15.42;100.00;96344.17;1691334;83;20953;-88
2022/09/10 01:33:14;;;;;;;9.08;7.42;;;;;;;15.41;100.00;96345.19;1693653;83;21064;-87
2022/09/10 01:35:47;;;;;;;7.92;7.12;;;;;;;15.39;100.00;96338.06;1702805;83;20969;-88
2022/09/10 01:38:18;;;;;;;8.63;6.90;;;;;;;15.40;100.00;96338.86;1706929;83;21059;-87
2022/09/10 01:40:45;;;;;;;8.20;7.40;;;;;;;15.38;100.00;96340.38;1705094;83;20988;-87
2022/09/10 01:43:11;;;;;;;9.45;7.15;;;;;;;15.35;100.00;96338.20;1697863;83;21035;-87
2022/09/10 01:46:03;;;;;;;7.83;7.12;;;;;;;15.33;100.00;96332.38;1691498;83;21292;-88
2022/09/10 01:49:08;;;;;;;7.78;6.97;;;;;;;15.31;100.00;96333.90;1692555;83;21019;-87
2022/09/10 01:51:56;;;;;;;7.53;6.78;;;;;;;15.27;100.00;96331.39;1709614;83;21332;-88
2022/09/10 01:54:55;;;;;;;8.03;7.22;;;;;;;15.25;100.00;96321.64;1712924;82;20949;-88
2022/09/10 01:57:51;;;;;;;8.68;7.87;;;;;;;15.23;100.00;96316.33;1694735;83;21603;-87
2022/09/10 02:00:17;;;;;;;8.35;7.55;;;;;;;15.21;100.00;96319.66;1703946;83;20929;-88
2022/09/10 02:03:07;;;;;;;8.13;7.33;;;;;;;15.19;100.00;96312.54;1716606;83;21332;-88
2022/09/10 02:05:34;;;;;;;7.60;6.87;;;;;;;15.20;100.00;96308.40;1699685;83;20949;-87
2022/09/10 02:08:04;;;;;;;9.48;7.78;;;;;;;15.20;100.00;96310.21;1706418;83;21020;-88
2022/09/10 02:10:30;;;;;;;9.28;8.40;;;;;;;15.19;100.00;96317.27;1715470;83;20988;-87
2022/09/10 02:12:55;;;;;;;8.78;7.90;;;;;;;15.14;100.00;96314.48;1704874;83;21052;-87
2022/09/10 02:15:23;;;;;;;9.35;8.20;;;;;;;15.13;100.00;96314.67;1702120;83;21052;-88
2022/09/10 02:17:49;;;;;;;9.68;8.20;;;;;;;15.11;100.00;96320.63;1709770;83;21391;-88
2022/09/10 02:20:14;;;;;;;10.55;9.45;;;;;;;15.08;100.00;96309.28;1710085;83;21004;-87
2022/09/10 02:22:53;;;;;;;10.93;9.93;;;;;;;15.09;100.00;96317.42;1712543;83;20955;-87
2022/09/10 02:25:19;;;;;;;12.55;9.95;;;;;;;15.04;100.00;96312.83;1710121;83;21028;-87
2022/09/10 02:27:47;;;;;;;9.53;8.63;;;;;;;15.10;100.00;96325.06;1716184;83;21402;-87
2022/09/10 02:30:13;;;;;;;10.50;9.50;;;;;;;15.11;100.00;96331.09;1691223;83;20959;-87
2022/09/10 02:32:39;;;;;;;9.33;8.25;;;;;;;15.11;100.00;96328.48;1714738;83;20976;-87
2022/09/10 02:35:06;;;;;;;8.50;7.80;;;;;;;15.12;100.00;96329.57;1703603;83;20957;-87
2022/09/10 02:37:32;;;;;;;9.75;8.75;;;;;;;15.13;100.00;96329.06;1699094;83;20912;-86
2022/09/10 02:39:58;;;;;;;11.12;9.98;;;;;;;15.14;100.00;96334.12;1671894;85;21029;-87
2022/09/10 02:42:26;;;;;;;11.45;10.35;;;;;;;15.14;100.00;96328.88;1692324;83;20941;-87
2022/09/10 02:44:52;;;;;;;14.47;13.08;;;;;;;15.15;100.00;96330.48;1691243;83;20991;-85
2022/09/10 02:47:18;;;;;;;15.13;13.70;;;;;;;15.15;100.00;96334.92;1704829;83;21359;-87
2022/09/10 02:49:44;;;;;;;14.58;13.05;;;;;;;15.12;100.00;96326.95;1699415;83;20976;-88
2022/09/10 02:52:11;;;;;;;11.97;10.65;;;;;;;15.13;100.00;96335.13;1718362;83;21020;-87
2022/09/10 02:54:37;;;;;;;10.63;9.60;;;;;;;15.13;100.00;96324.66;1707031;83;20983;-88
2022/09/10 02:57:03;;;;;;;9.50;8.60;;;;;;;15.12;100.00;96323.03;1699804;83;20991;-87
2022/09/10 02:59:31;;;;;;;10.18;9.20;;;;;;;15.12;100.00;96326.16;1702709;83;21448;-88
2022/09/10 03:01:56;;;;;;;10.40;9.50;;;;;;;15.14;100.00;96327.58;1691297;83;21016;-87
2022/09/10 03:04:22;;;;;;;9.28;8.43;;;;;;;15.17;100.00;96332.38;1691268;83;21422;-88
2022/09/10 03:06:48;;;;;;;8.53;7.83;;;;;;;15.17;100.00;96336.30;1681403;85;20984;-87
2022/09/10 03:09:15;;;;;;;9.68;7.03;;;;;;;15.19;100.00;96338.20;1691080;83;21425;-87
2022/09/10 03:11:40;;;;;;;7.50;6.20;;;;;;;15.20;100.00;96337.19;1706652;83;21431;-88
2022/09/10 03:14:08;;;;;;;7.20;6.60;;;;;;;15.24;100.00;96333.63;1709823;83;21083;-89
2022/09/10 03:16:34;;;;;;;7.55;6.85;;;;;;;15.26;100.00;96333.71;1728606;83;20965;-88
2022/09/10 03:19:00;;;;;;;8.18;7.37;;;;;;;15.26;100.00;96333.71;1701023;83;21023;-88
2022/09/10 03:21:25;;;;;;;8.53;7.67;;;;;;;15.27;100.00;96327.45;1699646;83;21007;-85
2022/09/10 03:23:52;;;;;;;8.10;7.40;;;;;;;15.28;100.00;96329.57;1720027;83;20925;-87
2022/09/10 03:26:19;;;;;;;8.75;7.95;;;;;;;15.28;100.00;96329.57;1707421;83;20977;-88
2022/09/10 03:28:46;;;;;;;8.00;7.20;;;;;;;15.27;100.00;96324.84;1724710;83;21007;-87
2022/09/10 03:31:12;;;;;;;8.13;7.42;;;;;;;15.30;100.00;96329.68;1724299;83;21043;-87
2022/09/10 03:33:38;;;;;;;7.47;6.55;;;;;;;15.29;100.00;96324.15;1698792;83;21367;-88
2022/09/10 03:36:06;;;;;;;5.30;4.80;;;;;;;15.29;100.00;96322.84;1712674;83;20996;-88
2022/09/10 03:38:32;;;;;;;5.47;4.83;;;;;;;15.27;100.00;96326.66;1725679;83;20964;-88
2022/09/10 03:40:57;;;;;;;5.78;4.40;;;;;;;15.24;100.00;96324.47;1709093;83;20984;-87
2022/09/10 03:43:24;;;;;;;4.58;3.75;;;;;;;15.21;100.00;96315.23;1728081;83;20988;-88
2022/09/10 03:45:50;;;;;;;4.85;3.85;;;;;;;15.19;100.00;96311.23;1724091;83;21036;-87
2022/09/10 03:48:17;;;;;;;4.03;3.72;;;;;;;15.18;100.00;96311.73;1723831;83;21346;-88
2022/09/10 03:50:44;;;;;;;4.35;3.40;;;;;;;15.17;100.00;96310.64;1690828;84;20969;-88
2022/09/10 03:53:12;;;;;;;3.98;3.50;;;;;;;15.15;100.00;96306.93;1717381;83;20969;-87
2022/09/10 03:55:37;;;;;;;3.33;2.67;;;;;;;15.13;100.00;96306.82;1725119;83;21051;-87
2022/09/10 03:58:05;;;;;;;3.37;3.08;;;;;;;15.12;100.00;96309.14;1728480;83;20964;-87
2022/09/10 04:00:32;;;;;;;3.52;2.60;;;;;;;15.11;100.00;96308.85;1726473;83;21084;-88
2022/09/10 04:02:59;;;;;;;3.00;2.30;;;;;;;15.09;100.00;96308.27;1724812;83;21015;-88
2022/09/10 04:05:26;;;;;;;2.37;2.17;;;;;;;15.09;100.00;96306.95;1726915;83;21026;-86
2022/09/10 04:07:57;;;;;;;3.08;2.77;;;;;;;15.04;100.00;96298.44;1724694;83;20960;-87
2022/09/10 04:10:24;;;;;;;2.62;2.42;;;;;;;15.03;100.00;96304.69;1692786;83;21048;-88
2022/09/10 04:12:52;;;;;;;3.25;2.40;;;;;;;15.02;100.00;96303.09;1716956;83;21008;-85
2022/09/10 04:15:19;;;;;;;3.15;2.75;;;;;;;15.00;100.00;96301.99;1717100;83;20973;-88
2022/09/10 04:17:50;;;;;;;3.08;2.72;;;;;;;15.02;100.00;96301.78;1693347;83;20985;-87
2022/09/10 04:20:20;;;;;;;4.53;2.50;;;;;;;15.00;100.00;96294.14;1712656;83;21344;-87
2022/09/10 04:22:47;;;;;;;2.42;2.20;;;;;;;15.02;100.00;96293.92;1718684;83;21431;-87
2022/09/10 04:25:14;;;;;;;5.20;2.52;;;;;;;15.01;100.00;96294.44;1690989;83;21395;-87
2022/09/10 04:27:41;;;;;;;3.45;2.70;;;;;;;15.01;100.00;96293.63;1717709;83;21410;-87
2022/09/10 04:30:08;;;;;;;2.60;2.30;;;;;;;14.99;100.00;96289.92;1716470;83;20965;-87
2022/09/10 04:32:34;;;;;;;2.72;2.10;;;;;;;14.98;100.00;96287.02;1719723;83;20988;-87
2022/09/10 04:35:05;;;;;;;2.55;2.20;;;;;;;14.99;100.00;96291.23;1707724;83;20960;-87
2022/09/10 04:37:28;;;;;;;3.35;2.10;;;;;;;15.00;100.00;96281.06;1690556;83;21984;-87
2022/09/10 04:39:54;;;;;;;2.42;2.02;;;;;;;14.99;100.00;96281.27;1697380;83;21000;-87
2022/09/10 04:42:19;;;;;;;2.47;1.70;;;;;;;14.97;100.00;96277.56;1719841;83;20936;-87
2022/09/10 04:44:46;;;;;;;3.72;2.70;;;;;;;14.97;100.00;96274.15;1715707;83;21044;-87
2022/09/10 04:47:12;;;;;;;2.60;2.33;;;;;;;14.97;100.00;96275.45;1690977;83;20980;-86
2022/09/10 04:49:39;;;;;;;2.98;2.60;;;;;;;14.97;100.00;96276.77;1673961;83;22564;-87
2022/09/10 04:52:04;;;;;;;3.85;2.70;;;;;;;14.97;100.00;96269.72;1712190;83;20962;-86
2022/09/10 04:54:32;;;;;;;4.15;3.35;;;;;;;14.97;100.00;96274.95;1712324;83;20979;-87
2022/09/10 04:56:59;;;;;;;4.83;2.90;;;;;;;14.97;100.00;96268.41;1714611;83;21040;-87
2022/09/10 04:59:26;;;;;;;4.10;3.62;;;;;;;14.98;100.00;96267.90;1705415;83;21020;-87
2022/09/10 05:01:52;;;;;;;4.78;3.12;;;;;;;14.99;100.00;96269.50;1696408;83;21363;-87
2022/09/10 05:04:18;;;;;;;3.70;3.33;;;;;;;14.99;100.00;96267.69;1692424;83;20952;-85
2022/09/10 05:06:44;;;;;;;6.08;3.92;;;;;;;15.00;100.00;96264.56;1701149;83;20925;-87
2022/09/10 05:09:10;;;;;;;4.10;3.62;;;;;;;15.02;100.00;96265.14;1703340;83;21493;-87
2022/09/10 05:11:36;;;;;;;5.12;4.62;;;;;;;15.02;100.00;96265.14;1694434;83;20953;-87
2022/09/10 05:14:02;;;;;;;5.70;4.10;;;;;;;15.03;100.00;96265.95;1698069;83;21382;-87
2022/09/10 05:16:28;;;;;;;5.85;3.90;;;;;;;15.04;100.00;96268.86;1703017;83;20972;-86
2022/09/10 05:18:55;;;;;;;4.08;3.72;;;;;;;15.04;100.00;96271.47;1723149;83;21347;-87
2022/09/10 05:21:21;;;;;;;5.62;4.00;;;;;;;15.03;100.00;96265.95;1715099;83;20976;-87
2022/09/10 05:23:47;;;;;;;4.30;3.83;;;;;;;15.05;100.00;96266.53;1696441;83;21023;-87
2022/09/10 05:26:14;;;;;;;5.80;4.17;;;;;;;15.05;100.00;96265.23;1688445;83;20988;-87
2022/09/10 05:28:41;;;;;;;3.90;3.60;;;;;;;15.06;100.00;96257.67;1711497;83;20988;-87
2022/09/10 05:31:08;;;;;;;4.15;3.30;;;;;;;15.04;100.00;96257.08;1689635;83;20988;-87
2022/09/10 05:33:35;;;;;;;3.80;3.15;;;;;;;15.03;100.00;96257.59;1713193;83;20980;-87
2022/09/10 05:36:01;;;;;;;4.35;3.05;;;;;;;15.04;100.00;96253.16;1712916;83;21432;-87
2022/09/10 05:38:27;;;;;;;3.47;3.00;;;;;;;15.04;100.00;96254.47;1717933;83;20995;-86
2022/09/10 05:40:53;;;;;;;4.37;2.83;;;;;;;15.05;100.00;96256.06;1705124;83;21024;-85
2022/09/10 05:43:19;;;;;;;3.15;2.85;;;;;;;15.05;100.00;96254.25;1713629;83;20960;-87
2022/09/10 05:45:45;;;;;;;3.27;2.47;;;;;;;15.05;100.00;96256.87;1696949;83;21007;-87
2022/09/10 05:48:12;;;;;;;3.12;2.83;;;;;;;15.04;100.00;96259.70;1702496;83;22003;-87
2022/09/10 05:50:38;;;;;;;3.00;2.70;;;;;;;15.04;100.00;96268.86;1699717;83;20944;-87
2022/09/10 05:53:05;;;;;;;3.00;2.70;;;;;;;15.05;100.00;96266.02;1705317;83;21049;-87
2022/09/10 05:55:32;;;;;;;3.58;2.70;;;;;;;15.05;100.00;96264.72;1726681;83;21027;-87
2022/09/10 05:57:58;;;;;;;3.92;2.62;;;;;;;15.06;100.00;96268.94;1706168;83;20993;-87
2022/09/10 06:00:24;;;;;;;3.05;2.75;;;;;;;15.06;100.00;96265.52;1725586;83;20936;-87
2022/09/10 06:02:50;;;;;;;3.95;2.20;;;;;;;15.07;100.00;96265.81;1721027;83;21204;-87
2022/09/10 06:05:15;;;;;;;3.00;2.62;;;;;;;15.06;100.00;96262.39;1700652;83;20997;-85
2022/09/10 06:07:42;;;;;;;2.92;2.62;;;;;;;15.00;100.00;96261.95;1719296;83;20963;-84
2022/09/10 06:10:08;;;;;;;3.37;2.40;;;;;;;15.01;100.00;96261.73;1695959;83;21067;-84
2022/09/10 06:12:34;;;;;;;2.50;2.00;;;;;;;15.03;100.00;96260.72;1716079;83;21032;-85
2022/09/10 06:15:02;;;;;;;4.60;2.30;;;;;;;15.05;100.00;96257.38;1715031;84;20961;-85
2022/09/10 06:17:28;;;;;;;3.70;1.98;;;;;;;15.11;100.00;96252.59;1723222;83;20965;-85
2022/09/10 06:19:53;;;;;;;3.08;2.02;;;;;;;15.17;100.00;96255.17;1725307;83;20988;-84
2022/09/10 06:22:19;;;;;;;1.87;1.72;;;;;;;15.24;100.00;96251.98;1724989;83;21316;-84
2022/09/10 06:24:48;;;;;;;2.22;1.75;;;;;;;15.32;100.00;96247.00;1705526;83;20944;-85
2022/09/10 06:27:12;;;;;;;1.95;1.72;;;;;;;15.38;100.00;96248.75;1716710;83;21084;-85
2022/09/10 06:29:38;;;;;;;2.00;1.75;;;;;;;15.46;100.00;96249.80;1719662;83;21060;-85
2022/09/10 06:32:04;;;;;;;3.87;1.70;;;;;;;15.51;100.00;96241.30;1726912;83;21363;-84
2022/09/10 06:34:30;;;;;;;2.90;1.70;;;;;;;15.61;100.00;96238.99;1717235;83;21034;-84
2022/09/10 06:36:57;;;;;;;2.00;1.40;;;;;;;15.70;100.00;96241.64;1721310;83;21410;-84
2022/09/10 06:39:23;;;;;;;4.65;1.40;;;;;;;15.79;100.00;96239.55;1705561;83;21004;-85
2022/09/10 06:41:49;;;;;;;1.37;1.27;;;;;;;15.81;100.00;96237.51;1707405;83;21419;-84
2022/09/10 06:44:15;;;;;;;1.98;1.50;;;;;;;15.85;100.00;96236.05;1705996;83;20984;-85
2022/09/10 06:46:41;;;;;;;3.42;1.42;;;;;;;15.95;100.00;96236.35;1705668;83;21301;-85
2022/09/10 06:49:09;;;;;;;2.85;1.15;;;;;;;16.03;100.00;96237.35;1723817;83;21040;-85
2022/09/10 06:51:35;;;;;;;7.50;4.70;;;;;;;16.09;100.00;96236.98;1711806;83;20967;-85
2022/09/10 06:54:01;;;;;;;2.10;1.00;;;;;;;16.14;99.83;96237.14;1721704;83;21028;-85
2022/09/10 06:56:27;;;;;;;1.20;0.90;;;;;;;16.16;100.00;96238.52;1719572;83;21003;-85
2022/09/10 06:58:53;;;;;;;3.10;1.40;;;;;;;16.27;100.00;96233.53;1700843;83;20948;-85
2022/09/10 07:01:21;;;;;;;3.67;2.25;;;;;;;16.33;100.00;96219.56;1721895;83;20992;-85
2022/09/10 07:03:55;;;;;;;2.70;1.60;;;;;;;16.46;99.67;96229.38;1701546;84;21031;-85
2022/09/10 07:06:22;;;;;;;2.50;1.80;;;;;;;16.54;99.49;96226.94;1725193;83;20973;-84
2022/09/10 07:08:48;;;;;;;3.92;2.00;;;;;;;16.62;99.70;96229.26;1726419;83;21335;-84
2022/09/10 07:11:14;;;;;;;5.33;3.02;;;;;;;16.66;98.88;96229.09;1717795;83;21054;-84
2022/09/10 07:13:41;;;;;;;3.62;1.90;;;;;;;16.73;98.77;96221.95;1712640;83;21346;-85
2022/09/10 07:16:08;;;;;;;2.40;1.82;;;;;;;16.77;98.95;96222.33;1728491;83;21008;-84
2022/09/10 07:18:34;;;;;;;2.62;1.67;;;;;;;16.84;99.11;96215.66;1703830;84;21002;-84
2022/09/10 07:21:11;;;;;;;4.08;2.50;;;;;;;16.89;98.65;96217.08;1701016;84;20996;-85
2022/09/10 07:23:39;;;;;;;3.72;2.77;;;;;;;16.87;98.85;96215.20;1703604;84;20965;-85
2022/09/10 07:26:07;;;;;;;4.97;3.20;;;;;;;16.87;98.71;96216.52;1698720;84;20961;-85
2022/09/10 07:28:33;;;;;;;3.90;2.85;;;;;;;16.92;99.45;96214.00;1705898;84;21029;-85
2022/09/10 07:30:58;;;;;;;6.60;3.17;;;;;;;16.88;99.00;96215.48;1712530;83;20996;-85
2022/09/10 07:33:24;;;;;;;5.85;3.67;;;;;;;16.88;98.92;96214.17;1712989;84;21009;-85
2022/09/10 07:35:50;;;;;;;5.20;2.77;;;;;;;16.94;99.18;96211.47;1711328;83;20929;-85
2022/09/10 07:38:16;;;;;;;3.35;2.50;;;;;;;16.97;98.68;96216.77;1713084;84;21005;-85
2022/09/10 07:40:45;;;;;;;4.08;3.02;;;;;;;16.91;98.56;96228.16;1701248;84;21536;-85
2022/09/10 07:43:11;;;;;;;2.92;1.80;;;;;;;16.89;99.22;96231.52;1699311;83;20985;-85
2022/09/10 07:45:36;;;;;;;3.17;2.10;;;;;;;16.94;100.00;96233.77;1705830;83;21007;-85
2022/09/10 07:48:04;;;;;;;2.95;2.62;;;;;;;16.99;99.80;96241.77;1702897;83;21075;-85
2022/09/10 07:50:29;;;;;;;5.08;2.95;;;;;;;16.99;99.17;96240.97;1727292;83;21330;-85
2022/09/10 07:52:55;;;;;;;3.20;2.30;;;;;;;17.07;99.54;96245.88;1699413;83;20976;-84
2022/09/10 07:55:22;;;;;;;3.25;2.20;;;;;;;16.94;96.04;96237.71;1717716;83;21035;-85
2022/09/10 07:57:47;;;;;;;2.60;2.17;;;;;;;16.93;96.14;96241.88;1708247;83;21000;-85
2022/09/10 08:00:14;;;;;;;2.98;2.20;;;;;;;16.94;96.61;96247.41;1725864;83;20975;-85
2022/09/10 08:02:41;;;;;;;3.83;2.77;;;;;;;16.96;96.76;96246.67;1715382;83;21017;-85
2022/09/10 08:05:09;;;;;;;3.25;2.65;;;;;;;16.92;97.58;96246.80;1710675;84;21040;-84
2022/09/10 08:07:37;;;;;;;3.17;2.52;;;;;;;16.88;97.53;96243.04;1724599;83;21355;-84
2022/09/10 08:10:04;;;;;;;4.42;2.90;;;;;;;16.87;97.56;96253.25;1728378;83;21059;-84
2022/09/10 08:12:32;;;;;;;3.35;2.67;;;;;;;16.86;97.33;96258.21;1718247;83;21064;-84
2022/09/10 08:14:59;;;;;;;4.35;3.12;;;;;;;16.84;96.77;96261.06;1712016;83;21007;-85
2022/09/10 08:17:28;;;;;;;4.00;2.55;;;;;;;16.84;97.06;96268.14;1715796;83;21490;-83
2022/09/10 08:19:55;;;;;;;3.22;2.35;;;;;;;16.81;97.05;96266.77;1701991;84;21427;-84
2022/09/10 08:22:20;;;;;;;3.37;2.20;;;;;;;16.73;96.46;96267.86;1699682;83;21107;-84
2022/09/10 08:24:49;;;;;;;3.27;2.35;;;;;;;16.75;97.51;96272.38;1723645;83;20968;-85
2022/09/10 08:27:15;;;;;;;1.95;1.75;;;;;;;16.79;98.08;96272.23;1698955;83;20964;-84
2022/09/10 08:29:42;;;;;;;3.90;2.20;;;;;;;16.79;96.38;96269.61;1640425;86;21340;-84
2022/09/10 08:32:08;;;;;;;3.40;1.80;;;;;;;16.77;97.29;96274.28;1703893;83;21174;-84
2022/09/10 08:34:34;;;;;;;2.72;2.12;;;;;;;16.81;96.97;96269.39;1714638;83;20984;-84
2022/09/10 08:37:02;;;;;;;3.35;2.00;;;;;;;16.85;97.30;96269.22;1715762;83;20991;-84
2022/09/10 08:39:29;;;;;;;2.30;1.90;;;;;;;16.93;95.27;96275.99;1724494;83;21063;-84
2022/09/10 08:42:04;;;;;;;3.70;2.00;;;;;;;16.80;94.25;96271.73;1720060;83;21055;-85
2022/09/10 08:44:52;;;;;;;3.67;2.10;;;;;;;16.84;96.02;96267.63;1695532;83;20986;-85
2022/09/10 08:47:49;;;;;;;3.22;2.10;;;;;;;16.97;97.70;96269.27;1719775;83;21272;-85
2022/09/10 08:50:39;;;;;;;3.80;2.00;;;;;;;17.06;96.62;96263.97;1724708;83;20913;-84
2022/09/10 08:53:33;;;;;;;4.60;2.75;;;;;;;17.02;94.67;96256.26;1701527;83;20976;-83
2022/09/10 08:56:07;;;;;;;2.05;1.62;;;;;;;17.05;96.27;96258.43;1724433;83;21497;-84
2022/09/10 08:58:56;;;;;;;3.30;2.00;;;;;;;17.06;94.21;96256.89;1710805;83;21023;-84
2022/09/10 09:01:39;;;;;;;2.25;2.02;;;;;;;17.00;94.97;96261.73;1706284;83;20993;-85
2022/09/10 09:04:10;;;;;;;3.70;2.02;;;;;;;16.95;95.14;96266.87;1717783;83;21004;-85
2022/09/10 09:06:51;;;;;;;2.47;1.87;;;;;;;16.99;95.61;96268.52;1709679;83;21359;-85
2022/09/10 09:09:17;;;;;;;6.00;2.30;;;;;;;17.01;94.13;96271.72;1710314;83;21025;-84
2022/09/10 09:12:04;;;;;;;2.90;2.00;;;;;;;17.04;95.06;96276.00;1706378;83;21098;-85
2022/09/10 09:14:51;;;;;;;3.80;2.05;;;;;;;17.05;94.48;96274.17;1699805;83;21015;-84
2022/09/10 09:17:50;;;;;;;3.42;2.30;;;;;;;17.03;94.32;96274.92;1717843;83;21020;-85
2022/09/10 09:20:24;;;;;;;2.70;2.15;;;;;;;17.01;94.74;96276.45;1675272;84;21032;-85
2022/09/10 09:23:05;;;;;;;4.50;2.50;;;;;;;17.01;95.51;96275.14;1695044;83;20991;-84
2022/09/10 09:25:46;;;;;;;4.65;2.55;;;;;;;17.07;96.39;96274.75;1695333;83;20983;-85
2022/09/10 09:28:46;;;;;;;3.17;2.87;;;;;;;17.13;96.45;96269.93;1699491;83;21072;-84
2022/09/10 09:31:31;;;;;;;3.80;3.22;;;;;;;17.27;95.43;96284.46;1695925;83;21542;-85
2022/09/10 09:34:05;;;;;;;4.95;4.45;;;;;;;17.37;94.14;96274.69;1653098;86;20984;-85
2022/09/10 09:36:41;;;;;;;4.37;4.00;;;;;;;17.47;93.15;96271.52;1722526;83;20987;-84
2022/09/10 09:39:25;;;;;;;4.80;4.40;;;;;;;17.57;92.72;96267.80;1723816;83;20961;-84
2022/09/10 09:42:02;;;;;;;5.55;4.92;;;;;;;17.67;92.60;96270.14;1714016;83;21457;-85
2022/09/10 09:44:39;;;;;;;5.65;4.40;;;;;;;17.71;92.58;96263.95;1708976;83;20965;-85
2022/09/10 09:47:07;;;;;;;4.20;3.80;;;;;;;17.67;93.14;96262.78;1720292;83;20944;-85
2022/09/10 09:49:33;;;;;;;5.22;4.72;;;;;;;17.66;92.71;96263.81;1665521;85;21053;-85
2022/09/10 09:51:59;;;;;;;4.67;3.83;;;;;;;17.66;93.35;96259.87;1703428;84;21101;-85
2022/09/10 09:54:27;;;;;;;3.70;3.35;;;;;;;17.64;94.12;96261.93;1675716;84;21117;-83
2022/09/10 09:56:57;;;;;;;4.22;3.52;;;;;;;17.59;93.42;96260.51;1695830;83;20964;-85
2022/09/10 09:59:27;;;;;;;3.80;3.10;;;;;;;17.56;93.00;96259.63;1718009;83;21360;-84
2022/09/10 10:01:56;;;;;;;4.33;2.77;;;;;;;17.55;92.88;96258.83;1717599;83;21028;-84
2022/09/10 10:04:24;;;;;;;3.95;3.50;;;;;;;17.58;93.83;96253.66;1677224;84;21014;-85
2022/09/10 10:07:00;;;;;;;3.65;2.30;;;;;;;17.62;94.38;96252.97;1714973;83;21019;-84
2022/09/10 10:09:31;;;;;;;2.20;2.00;;;;;;;17.67;91.94;96252.27;1721566;83;20988;-84
2022/09/10 10:12:04;;;;;;;3.12;2.17;;;;;;;17.68;89.61;96252.58;1724651;83;21008;-85
2022/09/10 10:14:40;;;;;;;3.70;2.60;;;;;;;17.73;92.00;96248.75;1705869;83;21085;-85
2022/09/10 10:17:40;;;;;;;3.33;2.10;;;;;;;17.72;92.17;96249.77;1715581;83;20968;-84
2022/09/10 10:20:15;;;;;;;2.90;2.30;;;;;;;17.66;91.50;96244.11;1706408;83;20968;-84
2022/09/10 10:22:44;;;;;;;2.67;1.98;;;;;;;17.65;92.49;96247.25;1722192;83;20996;-85
2022/09/10 10:25:42;;;;;;;3.83;2.45;;;;;;;17.67;91.57;96248.33;1722719;83;20973;-84
2022/09/10 10:28:22;;;;;;;2.75;2.25;;;;;;;17.72;90.21;96250.29;1721268;83;21040;-85
2022/09/10 10:30:54;;;;;;;3.17;2.62;;;;;;;17.85;89.72;96246.91;1700796;83;21481;-86
2022/09/10 10:33:24;;;;;;;;;;;;;;;17.91;89.03;96240.75;1710292;83;21056;-86
2022/09/10 10:36:19;;;;;;;2.55;1.72;;;;;;;18.00;88.39;96235.92;1727334;83;20145;-86
2022/09/10 10:38:54;;;;;;;3.40;1.50;;;;;;;17.97;90.54;96243.77;1700875;83;20984;-86
2022/09/10 10:41:48;;;;;;;2.90;1.60;;;;;;;17.98;90.59;96237.47;1721178;83;21027;-86
2022/09/10 10:44:28;;;;;;;2.50;1.70;;;;;;;18.03;92.04;96238.59;1720797;83;20944;-86
2022/09/10 10:47:26;;;;;;;2.65;1.95;;;;;;;18.02;92.16;96233.06;1711063;83;21040;-86
2022/09/10 10:50:18;;;;;;;2.87;2.10;;;;;;;18.00;90.08;96235.92;1729955;83;21070;-86
2022/09/10 10:53:25;;;;;;;3.27;1.65;;;;;;;18.06;92.03;96231.56;1711990;83;21066;-86
2022/09/10 10:56:15;;;;;;;3.05;1.47;;;;;;;18.17;91.23;96232.05;1715393;83;21378;-86
2022/09/10 10:58:47;;;;;;;2.77;1.90;;;;;;;18.15;89.83;96231.49;1706521;83;20996;-86
2022/09/10 11:01:22;;;;;;;2.08;1.87;;;;;;;18.15;90.37;96232.29;1724551;82;20988;-86
2022/09/10 11:04:00;;;;;;;1.42;1.32;;;;;;;18.17;89.59;96235.48;1707599;83;21413;-86
2022/09/10 11:06:36;;;;;;;2.40;2.00;;;;;;;18.29;88.03;96236.25;1729488;83;21079;-86
2022/09/10 11:09:17;;;;;;;2.47;2.00;;;;;;;18.32;87.90;96229.72;1730099;83;20967;-87
2022/09/10 11:11:56;;;;;;;1.87;1.62;;;;;;;18.47;88.67;96235.28;1709314;82;21167;-86
2022/09/10 11:14:36;;;;;;;2.47;2.22;;;;;;;18.53;86.70;96237.48;1721923;83;21000;-87
2022/09/10 11:17:14;;;;;;;2.52;2.15;;;;;;;18.57;86.67;96233.36;1707093;83;21024;-86
2022/09/10 11:19:46;;;;;;;3.20;2.45;;;;;;;18.69;86.12;96227.54;1710691;83;21008;-87
2022/09/10 11:22:22;;;;;;;21.82;11.08;;;;;;;18.78;84.37;96233.23;1691305;83;21017;-86
2022/09/10 11:24:53;;;;;;;11.50;5.37;;;;;;;18.85;83.23;96224.14;1691925;83;20917;-86
2022/09/10 11:27:31;;;;;;;4.70;3.00;;;;;;;18.95;83.23;96226.16;1690643;83;21071;-87
2022/09/10 11:30:04;;;;;;;2.60;1.82;;;;;;;18.98;81.84;96229.63;1690166;83;21419;-87
2022/09/10 11:32:54;;;;;;;3.00;2.00;;;;;;;18.98;80.06;96230.14;1691252;83;20973;-87
2022/09/10 11:35:30;;;;;;;3.15;2.42;;;;;;;18.86;80.66;96230.20;1691302;83;20979;-87
2022/09/10 11:38:19;;;;;;;2.00;1.45;;;;;;;18.80;81.77;96218.80;1721538;83;21047;-87
2022/09/10 11:41:21;;;;;;;4.85;2.20;;;;;;;18.70;80.97;96220.44;1709491;83;20981;-87
2022/09/10 11:44:16;;;;;;;2.20;1.52;;;;;;;18.61;82.42;96222.64;1713657;83;20960;-87
2022/09/10 11:46:51;;;;;;;1.42;1.22;;;;;;;18.56;82.10;96223.36;1719994;83;21040;-87
2022/09/10 11:49:25;;;;;;;1.82;1.30;;;;;;;18.54;79.86;96230.66;1679905;84;21001;-86